Time,TemperatureF,DewpointF,PressureIn,WindDirection,WindDirectionDegrees,WindSpeedMPH,WindSpeedGustMPH,Humidity,HourlyPrecipIn,Conditions,Clouds,dailyrainin,SolarRadiationWatts/m^2,SoftwareType,DateUTC
2013-08-26 00:04:00,61.2,50.6,29.75,SW,218,7.0,13.0,68,0.00,,,0.00,93,Wunderground v.1.15,2013-08-26 06:04:00,
2013-08-26 00:10:00,60.7,51.2,29.76,SSW,212,6.0,13.0,71,0.00,,,0.00,91,Wunderground v.1.15,2013-08-26 06:10:00,
2013-08-26 00:16:00,60.2,51.1,29.75,SSW,210,5.0,13.0,72,0.00,,,0.00,90,Wunderground v.1.15,2013-08-26 06:16:00,
2013-08-26 00:22:00,60.0,50.9,29.75,SSW,210,4.0,13.0,72,0.00,,,0.00,88,Wunderground v.1.15,2013-08-26 06:22:00,
2013-08-26 00:28:00,60.0,51.3,29.75,SSW,210,3.0,13.0,73,0.00,,,0.00,88,Wunderground v.1.15,2013-08-26 06:28:00,
2013-08-26 00:36:00,60.2,51.9,29.75,East,87,5.0,13.0,74,0.00,,,0.00,88,Wunderground v.1.15,2013-08-26 06:36:00,
2013-08-26 00:42:00,60.3,51.6,29.76,East,95,6.0,13.0,73,0.00,,,0.00,88,Wunderground v.1.15,2013-08-26 06:42:00,
2013-08-26 00:48:00,60.5,51.0,29.77,East,91,9.0,13.0,71,0.00,,,0.00,90,Wunderground v.1.15,2013-08-26 06:48:00,
2013-08-26 00:54:00,60.9,51.0,29.82,ENE,67,15.0,22.0,70,0.00,,,0.00,91,Wunderground v.1.15,2013-08-26 06:54:00,
2013-08-26 01:00:00,61.3,51.0,29.80,East,93,18.0,18.0,69,0.00,,,0.00,95,Wunderground v.1.15,2013-08-26 07:00:00,
2013-08-26 01:06:00,61.5,51.2,29.79,ESE,103,13.0,18.0,69,0.00,,,0.00,105,Wunderground v.1.15,2013-08-26 07:06:00,
2013-08-26 01:12:00,61.5,51.2,29.80,East,93,9.0,13.0,69,0.00,,,0.00,95,Wunderground v.1.15,2013-08-26 07:12:00,
2013-08-26 01:18:00,61.4,51.5,29.76,East,93,4.0,13.0,70,0.00,,,0.00,95,Wunderground v.1.15,2013-08-26 07:18:00,
2013-08-26 01:24:00,60.7,51.6,29.78,North,3,4.0,13.0,72,0.00,,,0.00,84,Wunderground v.1.15,2013-08-26 07:24:00,
2013-08-26 01:30:00,59.5,51.6,29.76,NNW,348,8.0,13.0,75,0.00,,,0.00,81,Wunderground v.1.15,2013-08-26 07:30:00,
2013-08-26 01:36:00,59.7,52.1,29.78,NNE,21,8.0,13.0,76,0.00,,,0.00,81,Wunderground v.1.15,2013-08-26 07:36:00,
2013-08-26 01:42:00,61.4,52.3,29.77,SE,136,8.0,9.0,72,0.00,,,0.00,86,Wunderground v.1.15,2013-08-26 07:42:00,
2013-08-26 01:48:00,61.6,52.5,29.77,SE,129,7.0,13.0,72,0.00,,,0.00,88,Wunderground v.1.15,2013-08-26 07:48:00,
2013-08-26 01:54:00,61.6,52.9,29.78,SE,129,4.0,13.0,73,0.00,,,0.00,90,Wunderground v.1.15,2013-08-26 07:54:00,
2013-08-26 02:00:00,61.6,52.5,29.77,East,82,4.0,15.0,72,0.00,,,0.00,91,Wunderground v.1.15,2013-08-26 08:00:00,
2013-08-26 02:06:00,61.1,53.8,29.78,ENE,69,5.0,15.0,77,0.00,,,0.00,90,Wunderground v.1.15,2013-08-26 08:06:00,
2013-08-26 02:12:00,60.8,52.8,29.76,ENE,69,3.0,15.0,75,0.00,,,0.00,88,Wunderground v.1.15,2013-08-26 08:12:00,
2013-08-26 02:18:00,60.0,52.1,29.77,NNW,337,3.0,15.0,75,0.00,,,0.00,86,Wunderground v.1.15,2013-08-26 08:18:00,
2013-08-26 02:24:00,59.7,51.4,29.76,NNW,340,4.0,15.0,74,0.00,,,0.00,86,Wunderground v.1.15,2013-08-26 08:24:00,
2013-08-26 02:30:00,60.2,51.9,29.76,North,7,4.0,15.0,74,0.00,,,0.00,86,Wunderground v.1.15,2013-08-26 08:30:00,
2013-08-26 02:36:00,60.6,51.9,29.77,NNE,27,5.0,15.0,73,0.00,,,0.00,90,Wunderground v.1.15,2013-08-26 08:36:00,
2013-08-26 02:42:00,61.2,50.6,29.75,NNE,26,4.0,15.0,68,0.00,,,0.00,91,Wunderground v.1.15,2013-08-26 08:42:00,
2013-08-26 02:48:00,61.5,51.6,29.76,ENE,60,6.0,15.0,70,0.00,,,0.00,93,Wunderground v.1.15,2013-08-26 08:48:00,
2013-08-26 02:54:00,61.8,51.1,29.75,ENE,66,7.0,15.0,68,0.00,,,0.00,95,Wunderground v.1.15,2013-08-26 08:54:00,
2013-08-26 03:00:00,62.0,50.9,29.74,SE,127,7.0,15.0,67,0.00,,,0.00,95,Wunderground v.1.15,2013-08-26 09:00:00,
2013-08-26 03:06:00,60.4,53.5,29.76,SE,135,8.0,15.0,78,0.00,,,0.00,93,Wunderground v.1.15,2013-08-26 09:06:00,
2013-08-26 03:12:00,59.0,53.2,29.75,SE,133,11.0,15.0,81,0.00,,,0.00,88,Wunderground v.1.15,2013-08-26 09:12:00,
2013-08-26 03:18:00,58.9,53.7,29.76,East,93,11.0,15.0,83,0.00,,,0.00,84,Wunderground v.1.15,2013-08-26 09:18:00,
2013-08-26 03:24:00,59.1,53.3,29.74,ENE,75,10.0,15.0,81,0.00,,,0.00,84,Wunderground v.1.15,2013-08-26 09:24:00,
2013-08-26 03:30:00,59.2,52.3,29.75,ENE,74,8.0,8.0,78,0.00,,,0.00,84,Wunderground v.1.15,2013-08-26 09:30:00,
2013-08-26 03:36:00,59.9,50.5,29.73,East,85,7.0,15.0,71,0.00,,,0.00,86,Wunderground v.1.15,2013-08-26 09:36:00,
2013-08-26 03:42:00,59.6,52.7,29.75,ESE,102,11.0,16.0,78,0.00,,,0.00,86,Wunderground v.1.15,2013-08-26 09:42:00,
2013-08-26 03:48:00,59.1,52.2,29.75,East,101,13.0,16.0,78,0.00,,,0.00,84,Wunderground v.1.15,2013-08-26 09:48:00,
2013-08-26 03:54:00,58.7,51.9,29.74,East,98,14.0,16.0,78,0.00,,,0.00,84,Wunderground v.1.15,2013-08-26 09:54:00,
2013-08-26 04:00:00,58.9,50.6,29.75,East,93,13.0,13.0,74,0.00,,,0.00,83,Wunderground v.1.15,2013-08-26 10:00:00,
2013-08-26 04:06:00,59.5,51.6,29.73,WNW,285,10.0,15.0,75,0.00,,,0.00,84,Wunderground v.1.15,2013-08-26 10:06:00,
2013-08-26 04:12:00,58.5,53.0,29.75,WNW,291,8.0,15.0,82,0.00,,,0.00,83,Wunderground v.1.15,2013-08-26 10:12:00,
2013-08-26 04:18:00,57.8,52.7,29.74,WNW,291,4.0,15.0,83,0.00,,,0.00,79,Wunderground v.1.15,2013-08-26 10:18:00,
2013-08-26 04:24:00,58.2,53.1,29.76,ESE,115,3.0,15.0,83,0.00,,,0.00,79,Wunderground v.1.15,2013-08-26 10:24:00,
2013-08-26 04:30:00,58.0,51.9,29.74,NE,54,5.0,5.0,80,0.00,,,0.00,77,Wunderground v.1.15,2013-08-26 10:30:00,
2013-08-26 04:36:00,57.8,52.0,29.76,NE,54,4.0,15.0,81,0.00,,,0.00,77,Wunderground v.1.15,2013-08-26 10:36:00,
2013-08-26 04:44:00,56.9,51.1,29.77,North,4,4.0,15.0,81,0.00,,,0.00,74,Wunderground v.1.15,2013-08-26 10:44:00,
2013-08-26 04:50:00,56.7,51.3,29.78,North,356,2.0,15.0,82,0.00,,,0.00,72,Wunderground v.1.15,2013-08-26 10:50:00,
2013-08-26 04:56:00,56.5,50.7,29.78,NNW,344,3.0,15.0,81,0.00,,,0.00,72,Wunderground v.1.15,2013-08-26 10:56:00,
2013-08-26 05:02:00,56.6,51.2,29.77,North,5,4.0,6.0,82,0.00,,,0.00,72,Wunderground v.1.15,2013-08-26 11:02:00,
2013-08-26 05:08:00,56.8,51.0,29.79,North,5,4.0,15.0,81,0.00,,,0.00,72,Wunderground v.1.15,2013-08-26 11:08:00,
2013-08-26 05:14:00,57.3,50.8,29.79,NNE,18,4.0,15.0,79,0.00,,,0.00,74,Wunderground v.1.15,2013-08-26 11:14:00,
2013-08-26 05:20:00,58.4,50.1,29.79,NE,52,8.0,15.0,74,0.00,,,0.00,76,Wunderground v.1.15,2013-08-26 11:20:00,
2013-08-26 05:26:00,59.1,49.7,29.79,SE,125,9.0,15.0,71,0.00,,,0.00,79,Wunderground v.1.15,2013-08-26 11:26:00,
2013-08-26 05:32:00,58.9,49.5,29.78,SE,126,5.0,15.0,71,0.00,,,0.00,81,Wunderground v.1.15,2013-08-26 11:32:00,
2013-08-26 05:38:00,58.6,49.6,29.79,SE,125,5.0,15.0,72,0.00,,,0.00,81,Wunderground v.1.15,2013-08-26 11:38:00,
2013-08-26 05:44:00,58.2,49.2,29.79,SE,134,7.0,15.0,72,0.00,,,0.00,79,Wunderground v.1.15,2013-08-26 11:44:00,
2013-08-26 05:50:00,57.9,49.3,29.78,ESE,122,7.0,7.0,73,0.00,,,0.00,79,Wunderground v.1.15,2013-08-26 11:50:00,
2013-08-26 05:56:00,58.1,49.1,29.78,East,83,6.0,15.0,72,0.00,,,0.00,77,Wunderground v.1.15,2013-08-26 11:56:00,
2013-08-26 06:02:00,58.3,49.3,29.77,East,84,3.0,14.0,72,0.00,,,0.00,77,Wunderground v.1.15,2013-08-26 12:02:00,
2013-08-26 06:08:00,58.2,50.0,29.78,SSE,155,2.0,14.0,74,0.00,,,0.00,77,Wunderground v.1.15,2013-08-26 12:08:00,
2013-08-26 06:14:00,56.6,48.8,29.78,SE,140,8.0,14.0,75,0.00,,,0.00,74,Wunderground v.1.15,2013-08-26 12:14:00,
2013-08-26 06:20:00,56.4,48.9,29.78,SE,127,13.0,13.0,76,0.00,,,0.00,74,Wunderground v.1.15,2013-08-26 12:20:00,
2013-08-26 06:26:00,57.0,49.5,29.80,SE,125,10.0,14.0,76,0.00,,,0.00,72,Wunderground v.1.15,2013-08-26 12:26:00,
2013-08-26 06:34:00,56.7,48.5,29.79,SE,127,7.0,14.0,74,0.00,,,0.00,70,Wunderground v.1.15,2013-08-26 12:34:00,
2013-08-26 06:40:00,56.2,48.4,29.81,ESE,109,8.0,8.0,75,0.00,,,0.00,65,Wunderground v.1.15,2013-08-26 12:40:00,
2013-08-26 06:46:00,56.2,48.7,29.82,SE,126,8.0,14.0,76,0.00,,,0.00,56,Wunderground v.1.15,2013-08-26 12:46:00,
2013-08-26 06:52:00,56.1,48.6,29.80,ENE,76,8.0,14.0,76,0.00,,,0.00,42,Wunderground v.1.15,2013-08-26 12:52:00,
2013-08-26 06:58:00,55.8,48.0,29.82,NNE,16,6.0,14.0,75,0.00,,,0.00,28,Wunderground v.1.15,2013-08-26 12:58:00,
2013-08-26 07:06:00,54.9,47.8,29.82,NNE,16,4.0,14.0,77,0.00,,,0.00,0,Wunderground v.1.15,2013-08-26 13:06:00,
2013-08-26 07:12:00,55.0,47.9,29.82,NNE,16,2.0,14.0,77,0.00,,,0.00,0,Wunderground v.1.15,2013-08-26 13:12:00,
2013-08-26 07:18:00,55.2,48.5,29.82,NNE,16,1.0,14.0,78,0.00,,,0.00,0,Wunderground v.1.15,2013-08-26 13:18:00,
2013-08-26 07:24:00,55.5,49.1,29.83,NNE,16,0.0,14.0,79,0.00,,,0.00,0,Wunderground v.1.15,2013-08-26 13:24:00,
2013-08-26 07:30:00,56.2,49.8,29.83,ESE,104,2.0,14.0,79,0.00,,,0.00,0,Wunderground v.1.15,2013-08-26 13:30:00,
2013-08-26 07:38:00,56.4,49.3,29.83,ESE,113,5.0,14.0,77,0.00,,,0.00,0,Wunderground v.1.15,2013-08-26 13:38:00,
2013-08-26 07:44:00,56.2,49.1,29.82,ESE,113,4.0,14.0,77,0.00,,,0.00,0,Wunderground v.1.15,2013-08-26 13:44:00,
2013-08-26 07:50:00,56.2,49.1,29.84,WSW,251,3.0,14.0,77,0.00,,,0.00,0,Wunderground v.1.15,2013-08-26 13:50:00,
2013-08-26 07:56:00,55.5,48.4,29.84,WSW,247,5.0,14.0,77,0.00,,,0.00,0,Wunderground v.1.15,2013-08-26 13:56:00,
2013-08-26 08:02:00,55.3,49.6,29.83,WNW,289,5.0,14.0,81,0.00,,,0.00,0,Wunderground v.1.15,2013-08-26 14:02:00,
2013-08-26 08:08:00,55.3,49.9,29.84,NW,306,4.0,14.0,82,0.00,,,0.00,0,Wunderground v.1.15,2013-08-26 14:08:00,
2013-08-26 08:14:00,55.3,49.9,29.83,NW,307,3.0,14.0,82,0.00,,,0.00,0,Wunderground v.1.15,2013-08-26 14:14:00,
2013-08-26 08:20:00,55.4,49.3,29.84,NW,307,3.0,14.0,80,0.00,,,0.00,0,Wunderground v.1.15,2013-08-26 14:20:00,
2013-08-26 08:28:00,55.8,49.7,29.85,NW,307,3.0,14.0,80,0.00,,,0.00,0,Wunderground v.1.15,2013-08-26 14:28:00,
2013-08-26 08:34:00,56.0,49.6,29.85,NW,307,2.0,14.0,79,0.00,,,0.00,0,Wunderground v.1.15,2013-08-26 14:34:00,
2013-08-26 08:40:00,56.4,49.6,29.85,NW,306,2.0,2.0,78,0.00,,,0.00,0,Wunderground v.1.15,2013-08-26 14:40:00,
2013-08-26 08:46:00,56.7,49.2,29.83,NW,306,2.0,14.0,76,0.00,,,0.00,0,Wunderground v.1.15,2013-08-26 14:46:00,
2013-08-26 08:54:00,57.2,48.6,29.85,SSW,212,1.0,14.0,73,0.00,,,0.00,0,Wunderground v.1.15,2013-08-26 14:54:00,
2013-08-26 09:02:00,58.1,49.5,29.83,SW,215,0.0,14.0,73,0.00,,,0.00,0,Wunderground v.1.15,2013-08-26 15:02:00,
2013-08-26 09:08:00,58.8,49.4,29.84,SW,215,1.0,14.0,71,0.00,,,0.00,0,Wunderground v.1.15,2013-08-26 15:08:00,
2013-08-26 09:14:00,59.4,50.4,29.82,WNW,296,1.0,14.0,72,0.00,,,0.00,0,Wunderground v.1.15,2013-08-26 15:14:00,
2013-08-26 09:20:00,59.9,49.7,29.84,WNW,296,1.0,1.0,69,0.00,,,0.00,0,Wunderground v.1.15,2013-08-26 15:20:00,
2013-08-26 09:26:00,60.0,50.2,29.83,WNW,295,2.0,14.0,70,0.00,,,0.00,0,Wunderground v.1.15,2013-08-26 15:26:00,
2013-08-26 09:32:00,59.9,49.7,29.83,WNW,295,3.0,14.0,69,0.00,,,0.00,0,Wunderground v.1.15,2013-08-26 15:32:00,
2013-08-26 09:38:00,60.0,49.8,29.83,WNW,295,2.0,14.0,69,0.00,,,0.00,0,Wunderground v.1.15,2013-08-26 15:38:00,
2013-08-26 09:44:00,60.4,50.2,29.83,WNW,295,1.0,14.0,69,0.00,,,0.00,0,Wunderground v.1.15,2013-08-26 15:44:00,
2013-08-26 09:50:00,60.6,49.2,29.83,WNW,295,0.0,14.0,66,0.00,,,0.00,0,Wunderground v.1.15,2013-08-26 15:50:00,
2013-08-26 09:56:00,61.5,49.6,29.82,WNW,295,1.0,14.0,65,0.00,,,0.00,0,Wunderground v.1.15,2013-08-26 15:56:00,
2013-08-26 10:02:00,62.1,48.9,29.82,WNW,295,2.0,14.0,62,0.00,,,0.00,0,Wunderground v.1.15,2013-08-26 16:02:00,
2013-08-26 10:08:00,62.6,49.4,29.82,WNW,295,2.0,14.0,62,0.00,,,0.00,0,Wunderground v.1.15,2013-08-26 16:08:00,
2013-08-26 10:16:00,62.8,49.1,29.82,WNW,295,3.0,14.0,61,0.00,,,0.00,0,Wunderground v.1.15,2013-08-26 16:16:00,
2013-08-26 10:22:00,63.8,50.5,29.82,WNW,295,1.0,14.0,62,0.00,,,0.00,0,Wunderground v.1.15,2013-08-26 16:22:00,
2013-08-26 10:28:00,64.3,49.2,29.81,WNW,295,1.0,14.0,58,0.00,,,0.00,0,Wunderground v.1.15,2013-08-26 16:28:00,
2013-08-26 10:34:00,64.5,48.4,29.81,WNW,295,1.0,14.0,56,0.00,,,0.00,0,Wunderground v.1.15,2013-08-26 16:34:00,
2013-08-26 10:40:00,64.4,49.3,29.81,WNW,295,1.0,14.0,58,0.00,,,0.00,0,Wunderground v.1.15,2013-08-26 16:40:00,
2013-08-26 10:46:00,64.7,50.0,29.82,WNW,295,1.0,14.0,59,0.00,,,0.00,0,Wunderground v.1.15,2013-08-26 16:46:00,
2013-08-26 10:52:00,65.4,50.2,29.82,WNW,295,1.0,14.0,58,0.00,,,0.00,0,Wunderground v.1.15,2013-08-26 16:52:00,
2013-08-26 10:58:00,66.0,49.8,29.81,WNW,295,0.0,14.0,56,0.00,,,0.00,0,Wunderground v.1.15,2013-08-26 16:58:00,
2013-08-26 11:04:00,67.1,49.9,29.81,WNW,295,1.0,4.0,54,0.00,,,0.00,0,Wunderground v.1.15,2013-08-26 17:04:00,
2013-08-26 11:10:00,67.5,50.8,29.81,WNW,295,2.0,4.0,55,0.00,,,0.00,0,Wunderground v.1.15,2013-08-26 17:10:00,
2013-08-26 11:16:00,67.6,49.9,29.80,WNW,295,3.0,4.0,53,0.00,,,0.00,0,Wunderground v.1.15,2013-08-26 17:16:00,
2013-08-26 11:22:00,67.6,51.8,29.80,WNW,285,5.0,5.0,57,0.00,,,0.00,0,Wunderground v.1.15,2013-08-26 17:22:00,
2013-08-26 11:28:00,67.9,52.6,29.80,WNW,289,6.0,6.0,58,0.00,,,0.00,0,Wunderground v.1.15,2013-08-26 17:28:00,
2013-08-26 11:34:00,68.5,51.7,29.80,WNW,285,6.0,7.0,55,0.00,,,0.00,0,Wunderground v.1.15,2013-08-26 17:34:00,
2013-08-26 11:40:00,68.9,51.1,29.80,WNW,285,6.0,6.0,53,0.00,,,0.00,0,Wunderground v.1.15,2013-08-26 17:40:00,
2013-08-26 11:46:00,69.7,52.3,29.79,WNW,285,5.0,6.0,54,0.00,,,0.00,0,Wunderground v.1.15,2013-08-26 17:46:00,
2013-08-26 11:54:00,70.6,53.1,29.79,West,280,6.0,7.0,54,0.00,,,0.00,0,Wunderground v.1.15,2013-08-26 17:54:00,
2013-08-26 12:00:00,71.2,55.2,29.78,West,275,6.0,6.0,57,0.00,,,0.00,0,Wunderground v.1.15,2013-08-26 18:00:00,
2013-08-26 12:06:00,72.0,53.4,29.78,West,275,5.0,6.0,52,0.00,,,0.00,0,Wunderground v.1.15,2013-08-26 18:06:00,
2013-08-26 12:12:00,72.8,52.5,29.78,West,275,4.0,4.0,49,0.00,,,0.00,0,Wunderground v.1.15,2013-08-26 18:12:00,
2013-08-26 12:18:00,73.5,51.4,29.77,West,275,2.0,4.0,46,0.00,,,0.00,0,Wunderground v.1.15,2013-08-26 18:18:00,
2013-08-26 12:24:00,74.7,50.7,29.77,West,275,1.0,4.0,43,0.00,,,0.00,0,Wunderground v.1.15,2013-08-26 18:24:00,
2013-08-26 12:30:00,75.9,50.5,29.77,East,81,2.0,5.0,41,0.00,,,0.00,0,Wunderground v.1.15,2013-08-26 18:30:00,
2013-08-26 12:36:00,76.3,48.8,29.76,ESE,118,6.0,7.0,38,0.00,,,0.00,0,Wunderground v.1.15,2013-08-26 18:36:00,
2013-08-26 12:42:00,76.9,46.4,29.76,ESE,116,6.0,6.0,34,0.00,,,0.00,0,Wunderground v.1.15,2013-08-26 18:42:00,
2013-08-26 12:48:00,77.8,48.7,29.76,ESE,121,4.0,10.0,36,0.00,,,0.00,0,Wunderground v.1.15,2013-08-26 18:48:00,
2013-08-26 12:54:00,77.5,46.1,29.76,ESE,120,7.0,9.0,33,0.00,,,0.00,0,Wunderground v.1.15,2013-08-26 18:54:00,
2013-08-26 13:00:00,77.7,44.6,29.76,East,88,8.0,8.0,31,0.00,,,0.00,0,Wunderground v.1.15,2013-08-26 19:00:00,
2013-08-26 13:06:00,78.3,44.3,29.75,NE,50,5.0,8.0,30,0.00,,,0.00,0,Wunderground v.1.15,2013-08-26 19:06:00,
2013-08-26 13:12:00,78.7,44.7,29.75,ENE,59,4.0,5.0,30,0.00,,,0.00,0,Wunderground v.1.15,2013-08-26 19:12:00,
2013-08-26 13:18:00,78.7,44.7,29.75,ENE,64,6.0,6.0,30,0.00,,,0.00,0,Wunderground v.1.15,2013-08-26 19:18:00,
2013-08-26 13:24:00,78.7,46.4,29.74,East,84,5.0,5.0,32,0.00,,,0.00,0,Wunderground v.1.15,2013-08-26 19:24:00,
2013-08-26 13:30:00,78.2,45.1,29.74,NE,35,6.0,9.0,31,0.00,,,0.00,0,Wunderground v.1.15,2013-08-26 19:30:00,
2013-08-26 13:36:00,77.8,45.6,29.74,NE,48,9.0,12.0,32,0.00,,,0.00,0,Wunderground v.1.15,2013-08-26 19:36:00,
2013-08-26 13:42:00,77.8,45.6,29.74,NNE,32,10.0,10.0,32,0.00,,,0.00,0,Wunderground v.1.15,2013-08-26 19:42:00,
2013-08-26 13:48:00,76.9,44.8,29.74,NE,46,15.0,28.0,32,0.00,,,0.00,0,Wunderground v.1.15,2013-08-26 19:48:00,
2013-08-26 13:54:00,74.9,43.8,29.74,NE,43,26.0,34.0,33,0.00,,,0.00,0,Wunderground v.1.15,2013-08-26 19:54:00,
2013-08-26 14:00:00,75.0,44.7,29.73,NNE,33,24.0,24.0,34,0.00,,,0.00,0,Wunderground v.1.15,2013-08-26 20:00:00,
2013-08-26 14:06:00,75.3,45.0,29.73,NE,46,20.0,24.0,34,0.00,,,0.00,0,Wunderground v.1.15,2013-08-26 20:06:00,
2013-08-26 14:12:00,76.3,44.3,29.73,NE,53,16.0,18.0,32,0.00,,,0.00,0,Wunderground v.1.15,2013-08-26 20:12:00,
2013-08-26 14:18:00,77.5,42.7,29.73,NE,54,13.0,18.0,29,0.00,,,0.00,0,Wunderground v.1.15,2013-08-26 20:18:00,
2013-08-26 14:24:00,77.9,45.7,29.72,ENE,72,13.0,16.0,32,0.00,,,0.00,0,Wunderground v.1.15,2013-08-26 20:24:00,
2013-08-26 14:30:00,77.9,41.2,29.72,ENE,63,15.0,15.0,27,0.00,,,0.00,0,Wunderground v.1.15,2013-08-26 20:30:00,
2013-08-26 14:36:00,78.4,44.4,29.71,East,98,16.0,22.0,30,0.00,,,0.00,0,Wunderground v.1.15,2013-08-26 20:36:00,
2013-08-26 14:42:00,78.7,43.8,29.71,ESE,108,17.0,17.0,29,0.00,,,0.00,0,Wunderground v.1.15,2013-08-26 20:42:00,
2013-08-26 14:48:00,79.1,41.3,29.71,East,79,16.0,21.0,26,0.00,,,0.00,0,Wunderground v.1.15,2013-08-26 20:48:00,
2013-08-26 14:54:00,79.1,41.3,29.71,ENE,66,18.0,21.0,26,0.00,,,0.00,0,Wunderground v.1.15,2013-08-26 20:54:00,
2013-08-26 15:00:00,79.4,39.4,29.71,ENE,61,18.0,18.0,24,0.00,,,0.00,0,Wunderground v.1.15,2013-08-26 21:00:00,
2013-08-26 15:06:00,79.9,39.9,29.71,East,83,15.0,23.0,24,0.00,,,0.00,0,Wunderground v.1.15,2013-08-26 21:06:00,
2013-08-26 15:12:00,80.1,38.9,29.71,East,91,11.0,23.0,23,0.00,,,0.00,0,Wunderground v.1.15,2013-08-26 21:12:00,
2013-08-26 15:18:00,80.0,44.9,29.70,East,87,10.0,23.0,29,0.00,,,0.00,0,Wunderground v.1.15,2013-08-26 21:18:00,
2013-08-26 15:24:00,80.1,40.0,29.70,ENE,73,10.0,23.0,24,0.00,,,0.00,0,Wunderground v.1.15,2013-08-26 21:24:00,
2013-08-26 15:30:00,80.1,45.9,29.70,East,99,8.0,23.0,30,0.00,,,0.00,0,Wunderground v.1.15,2013-08-26 21:30:00,
2013-08-26 15:36:00,80.5,42.4,29.70,ENE,77,8.0,23.0,26,0.00,,,0.00,0,Wunderground v.1.15,2013-08-26 21:36:00,
2013-08-26 15:42:00,80.8,41.7,29.70,NE,50,5.0,23.0,25,0.00,,,0.00,0,Wunderground v.1.15,2013-08-26 21:42:00,
2013-08-26 15:48:00,81.0,42.9,29.69,ENE,64,4.0,23.0,26,0.00,,,0.00,0,Wunderground v.1.15,2013-08-26 21:48:00,
2013-08-26 15:54:00,80.9,42.8,29.69,ENE,77,6.0,23.0,26,0.00,,,0.00,0,Wunderground v.1.15,2013-08-26 21:54:00,
2013-08-26 16:02:00,80.3,45.1,29.69,ESE,106,8.0,23.0,29,0.00,,,0.00,0,Wunderground v.1.15,2013-08-26 22:02:00,
2013-08-26 16:08:00,80.1,42.1,29.69,ESE,103,11.0,23.0,26,0.00,,,0.00,0,Wunderground v.1.15,2013-08-26 22:08:00,
2013-08-26 16:14:00,80.3,40.2,29.69,ESE,109,10.0,23.0,24,0.00,,,0.00,0,Wunderground v.1.15,2013-08-26 22:14:00,
2013-08-26 16:20:00,80.1,42.1,29.69,ESE,117,8.0,23.0,26,0.00,,,0.00,0,Wunderground v.1.15,2013-08-26 22:20:00,
2013-08-26 16:26:00,79.9,39.9,29.69,East,101,14.0,23.0,24,0.00,,,0.00,0,Wunderground v.1.15,2013-08-26 22:26:00,
2013-08-26 16:32:00,79.8,42.8,29.69,ESE,116,16.0,23.0,27,0.00,,,0.00,0,Wunderground v.1.15,2013-08-26 22:32:00,
2013-08-26 16:38:00,79.8,42.8,29.69,ESE,114,11.0,23.0,27,0.00,,,0.00,0,Wunderground v.1.15,2013-08-26 22:38:00,
2013-08-26 16:46:00,79.8,41.9,29.70,NNE,18,9.0,23.0,26,0.00,,,0.00,0,Wunderground v.1.15,2013-08-26 22:46:00,
2013-08-26 16:56:00,79.0,44.0,29.69,North,8,10.0,23.0,29,0.00,,,0.00,0,Wunderground v.1.15,2013-08-26 22:56:00,
2013-08-26 17:02:00,78.7,43.8,29.69,North,354,13.0,23.0,29,0.00,,,0.00,0,Wunderground v.1.15,2013-08-26 23:02:00,
2013-08-26 17:10:00,78.3,44.3,29.69,NNE,31,18.0,23.0,30,0.00,,,0.00,0,Wunderground v.1.15,2013-08-26 23:10:00,
2013-08-26 17:16:00,78.3,44.3,29.68,North,10,17.0,23.0,30,0.00,,,0.00,0,Wunderground v.1.15,2013-08-26 23:16:00,
2013-08-26 17:22:00,78.3,43.4,29.69,NNE,12,15.0,23.0,29,0.00,,,0.00,0,Wunderground v.1.15,2013-08-26 23:22:00,
2013-08-26 17:28:00,78.5,43.6,29.69,NNE,18,16.0,23.0,29,0.00,,,0.00,0,Wunderground v.1.15,2013-08-26 23:28:00,
2013-08-26 17:34:00,78.4,45.3,29.68,NNE,18,16.0,23.0,31,0.00,,,0.00,0,Wunderground v.1.15,2013-08-26 23:34:00,
2013-08-26 17:40:00,78.6,44.6,29.68,NNE,20,15.0,15.0,30,0.00,,,0.00,0,Wunderground v.1.15,2013-08-26 23:40:00,
2013-08-26 17:46:00,78.6,46.3,29.68,NNE,15,14.0,23.0,32,0.00,,,0.00,0,Wunderground v.1.15,2013-08-26 23:46:00,
2013-08-26 17:52:00,78.5,45.3,29.68,NNE,24,11.0,23.0,31,0.00,,,0.00,0,Wunderground v.1.15,2013-08-26 23:52:00,
2013-08-26 17:58:00,78.7,45.5,29.68,NNE,32,11.0,23.0,31,0.00,,,0.00,0,Wunderground v.1.15,2013-08-26 23:58:00,
2013-08-26 18:04:00,78.9,45.7,29.68,NE,37,12.0,23.0,31,0.00,,,0.00,0,Wunderground v.1.15,2013-08-27 00:04:00,
2013-08-26 18:10:00,79.1,42.2,29.68,NNE,20,12.0,23.0,27,0.00,,,0.00,0,Wunderground v.1.15,2013-08-27 00:10:00,
2013-08-26 18:16:00,79.4,45.3,29.68,North,10,10.0,23.0,30,0.00,,,0.00,0,Wunderground v.1.15,2013-08-27 00:16:00,
2013-08-26 18:22:00,79.5,43.5,29.69,ENE,61,10.0,23.0,28,0.00,,,0.00,0,Wunderground v.1.15,2013-08-27 00:22:00,
2013-08-26 18:28:00,79.6,45.4,29.69,NNE,31,10.0,23.0,30,0.00,,,0.00,0,Wunderground v.1.15,2013-08-27 00:28:00,
2013-08-26 18:34:00,79.6,45.4,29.69,NNE,32,14.0,23.0,30,0.00,,,0.00,0,Wunderground v.1.15,2013-08-27 00:34:00,
2013-08-26 18:40:00,78.0,48.1,29.69,NNE,29,20.0,23.0,35,0.00,,,0.00,0,Wunderground v.1.15,2013-08-27 00:40:00,
2013-08-26 18:46:00,76.1,49.3,29.69,NE,37,22.0,23.0,39,0.00,,,0.00,0,Wunderground v.1.15,2013-08-27 00:46:00,
2013-08-26 18:58:00,74.0,49.4,29.69,NNE,21,18.0,23.0,42,0.00,,,0.00,0,Wunderground v.1.15,2013-08-27 00:58:00,
2013-08-26 19:04:00,73.2,49.4,29.69,NNE,22,21.0,24.0,43,0.00,,,0.00,0,Wunderground v.1.15,2013-08-27 01:04:00,
2013-08-26 19:10:00,73.0,49.8,29.69,NNE,25,22.0,24.0,44,0.00,,,0.00,0,Wunderground v.1.15,2013-08-27 01:10:00,
2013-08-26 19:16:00,73.0,49.2,29.70,NNE,23,23.0,24.0,43,0.00,,,0.00,0,Wunderground v.1.15,2013-08-27 01:16:00,
2013-08-26 19:22:00,72.9,48.5,29.70,NE,40,21.0,23.0,42,0.00,,,0.00,0,Wunderground v.1.15,2013-08-27 01:22:00,
2013-08-26 19:30:00,73.4,48.9,29.69,NNE,33,17.0,23.0,42,0.00,,,0.00,0,Wunderground v.1.15,2013-08-27 01:30:00,
2013-08-26 19:36:00,73.9,48.7,29.69,NNE,28,17.0,23.0,41,0.00,,,0.00,0,Wunderground v.1.15,2013-08-27 01:36:00,
2013-08-26 19:42:00,74.5,47.9,29.69,NNE,33,17.0,23.0,39,0.00,,,0.00,0,Wunderground v.1.15,2013-08-27 01:42:00,
2013-08-26 19:48:00,74.7,48.8,29.70,NE,51,14.0,23.0,40,0.00,,,0.00,0,Wunderground v.1.15,2013-08-27 01:48:00,
2013-08-26 19:54:00,74.5,50.5,29.71,SSW,212,11.0,23.0,43,0.00,,,0.00,0,Wunderground v.1.15,2013-08-27 01:54:00,
2013-08-26 20:00:00,73.8,47.3,29.70,SSW,199,8.0,8.0,39,0.00,,,0.00,0,Wunderground v.1.15,2013-08-27 02:00:00,
2013-08-26 20:06:00,74.0,46.1,29.70,SW,226,4.0,28.0,37,0.00,,,0.00,0,Wunderground v.1.15,2013-08-27 02:06:00,
2013-08-26 20:14:00,73.5,50.9,29.71,SW,226,5.0,28.0,45,0.00,,,0.00,81,Wunderground v.1.15,2013-08-27 02:14:00,
2013-08-26 20:26:00,72.1,51.9,29.72,WNW,299,3.0,28.0,49,0.00,,,0.00,83,Wunderground v.1.15,2013-08-27 02:26:00,
2013-08-26 20:32:00,71.7,49.8,29.72,WNW,299,3.0,28.0,46,0.00,,,0.00,116,Wunderground v.1.15,2013-08-27 02:32:00,
2013-08-26 20:38:00,71.7,49.8,29.72,WNW,299,2.0,28.0,46,0.00,,,0.00,141,Wunderground v.1.15,2013-08-27 02:38:00,
2013-08-26 20:44:00,71.6,52.0,29.72,SW,236,3.0,28.0,50,0.00,,,0.00,142,Wunderground v.1.15,2013-08-27 02:44:00,
2013-08-26 20:50:00,70.7,52.7,29.73,West,262,7.0,28.0,53,0.00,,,0.00,139,Wunderground v.1.15,2013-08-27 02:50:00,
2013-08-26 20:56:00,70.4,53.0,29.73,North,349,7.0,28.0,54,0.00,,,0.00,137,Wunderground v.1.15,2013-08-27 02:56:00,
2013-08-26 21:06:00,69.9,49.9,29.72,NNW,346,5.0,28.0,49,0.00,,,0.00,134,Wunderground v.1.15,2013-08-27 03:06:00,
2013-08-26 21:18:00,69.9,49.9,29.73,NNW,346,2.0,28.0,49,0.00,,,0.00,134,Wunderground v.1.15,2013-08-27 03:18:00,
2013-08-26 21:26:00,69.8,50.9,29.73,East,100,4.0,28.0,51,0.00,,,0.00,134,Wunderground v.1.15,2013-08-27 03:26:00,
2013-08-26 21:38:00,68.7,53.8,29.74,SSW,202,6.0,28.0,59,0.00,,,0.00,130,Wunderground v.1.15,2013-08-27 03:38:00,
2013-08-26 21:50:00,67.7,54.2,29.74,SSW,209,4.0,28.0,62,0.00,,,0.00,123,Wunderground v.1.15,2013-08-27 03:50:00,
2013-08-26 21:56:00,67.4,54.8,29.74,SW,218,4.0,28.0,64,0.00,,,0.00,121,Wunderground v.1.15,2013-08-27 03:56:00,
2013-08-26 22:04:00,66.6,52.7,29.75,NW,310,2.0,28.0,61,0.00,,,0.00,118,Wunderground v.1.15,2013-08-27 04:04:00,
2013-08-26 22:06:00,66.6,52.3,29.75,SSW,199,2.0,28.0,60,0.00,,,0.00,118,Wunderground v.1.15,2013-08-27 04:06:00,
2013-08-26 22:12:00,66.7,52.8,29.75,SSW,201,1.0,28.0,61,0.00,,,0.00,118,Wunderground v.1.15,2013-08-27 04:12:00,
2013-08-26 22:16:00,66.7,53.3,29.76,ENE,77,2.0,28.0,62,0.00,,,0.00,118,Wunderground v.1.15,2013-08-27 04:16:00,
2013-08-26 22:20:00,66.7,53.3,29.75,ENE,66,3.0,28.0,62,0.00,,,0.00,116,Wunderground v.1.15,2013-08-27 04:20:00,
2013-08-26 22:26:00,66.9,54.7,29.75,ENE,66,4.0,28.0,65,0.00,,,0.00,118,Wunderground v.1.15,2013-08-27 04:26:00,
2013-08-26 22:32:00,67.0,54.4,29.75,ENE,66,1.0,28.0,64,0.00,,,0.00,116,Wunderground v.1.15,2013-08-27 04:32:00,
2013-08-26 22:38:00,66.9,53.5,29.76,ENE,66,2.0,28.0,62,0.00,,,0.00,114,Wunderground v.1.15,2013-08-27 04:38:00,
2013-08-26 22:46:00,67.0,53.1,29.76,ENE,66,4.0,28.0,61,0.00,,,0.00,114,Wunderground v.1.15,2013-08-27 04:46:00,
2013-08-26 22:56:00,67.0,51.3,29.76,NE,34,2.0,28.0,57,0.00,,,0.00,116,Wunderground v.1.15,2013-08-27 04:56:00,
2013-08-26 23:02:00,66.2,51.0,29.77,NE,34,3.0,28.0,58,0.00,,,0.00,113,Wunderground v.1.15,2013-08-27 05:02:00,
2013-08-26 23:08:00,66.0,50.8,29.77,NE,34,2.0,28.0,58,0.00,,,0.00,111,Wunderground v.1.15,2013-08-27 05:08:00,
2013-08-26 23:14:00,66.0,51.3,29.77,NE,34,1.0,28.0,59,0.00,,,0.00,107,Wunderground v.1.15,2013-08-27 05:14:00,
2013-08-26 23:22:00,65.8,51.1,29.78,NE,34,2.0,28.0,59,0.00,,,0.00,105,Wunderground v.1.15,2013-08-27 05:22:00,
2013-08-26 23:28:00,65.6,50.4,29.78,NE,34,0.0,28.0,58,0.00,,,0.00,104,Wunderground v.1.15,2013-08-27 05:28:00,
2013-08-26 23:34:00,65.5,52.6,29.77,NE,35,2.0,28.0,63,0.00,,,0.00,102,Wunderground v.1.15,2013-08-27 05:34:00,
2013-08-26 23:40:00,65.2,52.3,29.78,NE,35,3.0,3.0,63,0.00,,,0.00,102,Wunderground v.1.15,2013-08-27 05:40:00,
2013-08-26 23:46:00,65.0,53.8,29.78,NE,35,1.0,28.0,67,0.00,,,0.00,100,Wunderground v.1.15,2013-08-27 05:46:00,
2013-08-26 23:52:00,64.8,51.0,29.78,NE,37,2.0,28.0,61,0.00,,,0.00,100,Wunderground v.1.15,2013-08-27 05:52:00,